Time;durP1;ratioP1;P1;durP2;ratioP2;P2;SDS_P1;SDS_P2;PMS_P1;PMS_P2;Temp;Humidity;BMP_temperature;BMP_pressure;BME280_temperature;BME280_humidity;BME280_pressure;Samples;Min_cycle;Max_cycle;Signal;HPM_P1;HPM_P2
2023/06/16 00:00:47;;;;;;;89.20;10.30;;;;;;;;;;106940;1275;22526;-84
2023/06/16 00:03:53;;;;;;;82.00;10.20;;;;;;;;;;106993;1275;25300;-85
2023/06/16 00:06:42;;;;;;;110.70;11.00;;;;;;;;;;107047;1275;22526;-80
2023/06/16 00:09:38;;;;;;;;;;;;;;;;;;;;;
2023/06/16 00:12:25;;;;;;;63.50;9.30;;;;;;;;;;106982;1275;22618;-80
2023/06/16 00:15:08;;;;;;;77.20;9.50;;;;;;;;;;106967;1275;24579;-81
2023/06/16 00:17:56;;;;;;;71.80;8.80;;;;;;;;;;106968;1276;24256;-84
2023/06/16 00:20:21;;;;;;;56.90;9.20;;;;;;;;;;107242;1275;22568;-80
2023/06/16 00:22:59;;;;;;;58.80;8.50;;;;;;;;;;106867;1260;25336;-79
2023/06/16 00:25:25;;;;;;;47.50;8.50;;;;;;;;;;106895;1277;23889;-81
2023/06/16 00:28:17;;;;;;;27.60;6.80;;;;;;;;;;106831;1277;22550;-81
2023/06/16 00:30:57;;;;;;;22.30;6.60;;;;;;;;;;106905;1275;22583;-77
2023/06/16 00:33:26;;;;;;;21.00;6.60;;;;;;;;;;106967;1259;24376;-83
2023/06/16 00:36:16;;;;;;;16.20;6.20;;;;;;;;;;107029;1274;22919;-79
2023/06/16 00:38:49;;;;;;;18.70;6.10;;;;;;;;;;107197;1275;22523;-78
2023/06/16 00:41:28;;;;;;;25.00;6.00;;;;;;;;;;107217;1275;22524;-79
2023/06/16 00:43:55;;;;;;;26.10;7.00;;;;;;;;;;106927;1258;24276;-83
2023/06/16 00:46:26;;;;;;;29.40;7.30;;;;;;;;;;106889;1276;24350;-78
2023/06/16 00:49:10;;;;;;;27.30;7.80;;;;;;;;;;106799;1277;23925;-79
2023/06/16 00:51:45;;;;;;;27.80;8.60;;;;;;;;;;106892;1277;25227;-79
2023/06/16 00:54:20;;;;;;;21.60;8.10;;;;;;;;;;106948;1272;25356;-83
2023/06/16 00:57:04;;;;;;;;;;;;;;;;;;;;;
2023/06/16 00:59:33;;;;;;;15.70;6.80;;;;;;;;;;106947;1275;22565;-83
2023/06/16 01:02:07;;;;;;;15.20;6.10;;;;;;;;;;106973;1260;22701;-81
2023/06/16 01:04:40;;;;;;;16.90;7.00;;;;;;;;;;106990;1275;25433;-83
2023/06/16 01:07:20;;;;;;;15.20;6.60;;;;;;;;;;106979;1275;25294;-81
2023/06/16 01:10:24;;;;;;;15.90;5.80;;;;;;;;;;106973;1273;25331;-82
2023/06/16 01:12:59;;;;;;;13.90;6.70;;;;;;;;;;107010;1267;25340;-81
2023/06/16 01:15:55;;;;;;;14.30;6.50;;;;;;;;;;107197;1275;22527;-79
2023/06/16 01:18:43;;;;;;;11.80;6.70;;;;;;;;;;107032;1275;22497;-82
2023/06/16 01:21:32;;;;;;;13.80;6.50;;;;;;;;;;106982;1275;22542;-81
2023/06/16 01:24:26;;;;;;;12.90;6.30;;;;;;;;;;106929;1259;22543;-86
2023/06/16 01:26:58;;;;;;;11.80;6.20;;;;;;;;;;106989;1275;22581;-81
2023/06/16 01:29:36;;;;;;;16.60;6.10;;;;;;;;;;106942;1276;22536;-86
2023/06/16 01:32:14;;;;;;;11.60;6.50;;;;;;;;;;107064;1275;22520;-80
2023/06/16 01:35:03;;;;;;;14.00;6.60;;;;;;;;;;107002;1254;22536;-80
2023/06/16 01:37:33;;;;;;;14.10;6.30;;;;;;;;;;107050;1275;22585;-82
2023/06/16 01:40:10;;;;;;;17.60;6.30;;;;;;;;;;106954;1275;22635;-83
2023/06/16 01:42:40;;;;;;;12.50;6.70;;;;;;;;;;106927;1275;22897;-82
2023/06/16 01:45:07;;;;;;;13.00;6.30;;;;;;;;;;107003;1276;25320;-83
2023/06/16 01:47:34;;;;;;;12.80;6.30;;;;;;;;;;106947;1275;22529;-85
2023/06/16 01:50:03;;;;;;;13.00;5.80;;;;;;;;;;106990;1275;24298;-83
2023/06/16 01:52:40;;;;;;;12.10;5.80;;;;;;;;;;106976;1275;22618;-79
2023/06/16 01:55:09;;;;;;;14.70;6.10;;;;;;;;;;106962;1258;22537;-85
2023/06/16 01:57:42;;;;;;;11.20;5.80;;;;;;;;;;106943;1275;22530;-83
2023/06/16 02:00:32;;;;;;;;;;;;;;;;;;;;;
2023/06/16 02:03:25;;;;;;;14.30;6.40;;;;;;;;;;106985;1275;25341;-83
2023/06/16 02:06:11;;;;;;;11.90;6.70;;;;;;;;;;107161;1257;22570;-82
2023/06/16 02:08:45;;;;;;;12.70;6.40;;;;;;;;;;106924;1275;22615;-83
2023/06/16 02:11:18;;;;;;;11.20;6.50;;;;;;;;;;107204;1275;22503;-84
2023/06/16 02:14:01;;;;;;;14.10;6.10;;;;;;;;;;106986;1275;24200;-79
2023/06/16 02:16:47;;;;;;;13.10;6.20;;;;;;;;;;106916;1275;25477;-80
2023/06/16 02:19:17;;;;;;;11.60;5.90;;;;;;;;;;107066;1275;25293;-83
2023/06/16 02:21:57;;;;;;;11.90;5.40;;;;;;;;;;106995;1275;25356;-81
2023/06/16 02:24:26;;;;;;;11.70;6.90;;;;;;;;;;107032;1275;22526;-80
2023/06/16 02:27:36;;;;;;;13.50;6.90;;;;;;;;;;106956;1260;22539;-84
2023/06/16 02:30:42;;;;;;;13.20;6.30;;;;;;;;;;106999;1275;22757;-80
2023/06/16 02:33:15;;;;;;;10.70;6.50;;;;;;;;;;106894;1275;22526;-81
2023/06/16 02:35:44;;;;;;;12.30;6.90;;;;;;;;;;106969;1260;22725;-81
2023/06/16 02:38:19;;;;;;;12.70;6.50;;;;;;;;;;107041;1275;25308;-79
2023/06/16 02:40:47;;;;;;;14.70;6.20;;;;;;;;;;106966;1275;24262;-82
2023/06/16 02:43:18;;;;;;;10.60;5.60;;;;;;;;;;106869;1275;23891;-84
2023/06/16 02:45:47;;;;;;;11.50;5.50;;;;;;;;;;106982;1259;22536;-84
2023/06/16 02:48:21;;;;;;;12.70;6.00;;;;;;;;;;106957;1275;24218;-83
2023/06/16 02:50:53;;;;;;;11.00;6.10;;;;;;;;;;106925;1275;22527;-80
2023/06/16 02:53:24;;;;;;;11.10;6.10;;;;;;;;;;107152;1275;26194;-81
2023/06/16 02:55:59;;;;;;;13.40;6.30;;;;;;;;;;106911;1260;22643;-81
2023/06/16 02:58:26;;;;;;;12.80;6.40;;;;;;;;;;106745;1275;25347;-80
2023/06/16 03:01:00;;;;;;;12.00;6.40;;;;;;;;;;106514;1275;24270;-80
2023/06/16 03:03:58;;;;;;;14.30;6.00;;;;;;;;;;106836;1275;22483;-84
2023/06/16 03:06:47;;;;;;;10.90;5.80;;;;;;;;;;107160;1270;25271;-81
2023/06/16 03:09:27;;;;;;;9.80;5.30;;;;;;;;;;107211;1276;24256;-80
2023/06/16 03:12:03;;;;;;;9.30;4.90;;;;;;;;;;107215;1276;25359;-79
2023/06/16 03:14:36;;;;;;;10.50;6.20;;;;;;;;;;107250;1276;22526;-81
2023/06/16 03:17:21;;;;;;;11.80;5.90;;;;;;;;;;107278;1260;25268;-81
2023/06/16 03:19:56;;;;;;;9.40;5.40;;;;;;;;;;106941;1275;22601;-84
2023/06/16 03:22:49;;;;;;;13.20;6.00;;;;;;;;;;107030;1275;24358;-79
2023/06/16 03:25:21;;;;;;;12.10;6.00;;;;;;;;;;107277;1273;22762;-80
2023/06/16 03:27:50;;;;;;;9.60;5.90;;;;;;;;;;107406;1273;24372;-81
2023/06/16 03:30:21;;;;;;;10.10;5.30;;;;;;;;;;107066;1273;22602;-84
2023/06/16 03:33:13;;;;;;;10.40;5.10;;;;;;;;;;107322;1273;24404;-80
2023/06/16 03:35:41;;;;;;;10.30;4.90;;;;;;;;;;107605;1273;22597;-80
2023/06/16 03:38:15;;;;;;;9.20;4.80;;;;;;;;;;107477;1260;22578;-80
2023/06/16 03:40:44;;;;;;;9.50;5.40;;;;;;;;;;107242;1273;22520;-81
2023/06/16 03:43:11;;;;;;;13.20;5.30;;;;;;;;;;107252;1273;25678;-80
2023/06/16 03:45:39;;;;;;;14.50;5.70;;;;;;;;;;107325;1273;24327;-83
2023/06/16 03:48:07;;;;;;;11.40;5.40;;;;;;;;;;107048;1257;22614;-80
2023/06/16 03:50:38;;;;;;;10.60;5.50;;;;;;;;;;107005;1275;22530;-87
2023/06/16 03:53:16;;;;;;;10.20;5.50;;;;;;;;;;107008;1275;23932;-80
2023/06/16 03:55:54;;;;;;;11.00;5.40;;;;;;;;;;106944;1275;24458;-85
2023/06/16 03:58:28;;;;;;;12.00;4.80;;;;;;;;;;106995;1273;22934;-85
2023/06/16 04:01:15;;;;;;;11.50;4.80;;;;;;;;;;107185;1273;25271;-81
2023/06/16 04:03:49;;;;;;;11.10;5.80;;;;;;;;;;107124;1273;25351;-82
2023/06/16 04:06:19;;;;;;;11.40;5.70;;;;;;;;;;107214;1273;25271;-82
2023/06/16 04:08:57;;;;;;;11.60;5.40;;;;;;;;;;107227;1261;22692;-82
2023/06/16 04:11:40;;;;;;;13.80;6.00;;;;;;;;;;107208;1273;22690;-84
2023/06/16 04:14:10;;;;;;;11.90;5.80;;;;;;;;;;107167;1273;22522;-80
2023/06/16 04:16:44;;;;;;;19.00;12.70;;;;;;;;;;107015;1273;25355;-80
2023/06/16 04:19:12;;;;;;;14.90;8.10;;;;;;;;;;107035;1258;22623;-82
2023/06/16 04:21:38;;;;;;;16.90;6.70;;;;;;;;;;106939;1274;21767;-80
2023/06/16 04:24:07;;;;;;;13.10;6.90;;;;;;;;;;106935;1275;22565;-87
2023/06/16 04:26:34;;;;;;;13.60;6.30;;;;;;;;;;106945;1274;25411;-84
2023/06/16 04:29:04;;;;;;;11.90;6.40;;;;;;;;;;107049;1258;25216;-84
2023/06/16 04:31:32;;;;;;;11.80;6.20;;;;;;;;;;107070;1273;25483;-83
2023/06/16 04:34:03;;;;;;;12.20;5.10;;;;;;;;;;107210;1273;22517;-80
2023/06/16 04:36:41;;;;;;;11.10;5.40;;;;;;;;;;107014;1273;26614;-80
2023/06/16 04:39:27;;;;;;;12.40;5.60;;;;;;;;;;107176;1257;25318;-83
2023/06/16 04:41:58;;;;;;;8.20;4.30;;;;;;;;;;107087;1273;24190;-87
2023/06/16 04:44:28;;;;;;;7.90;3.80;;;;;;;;;;106998;1274;22523;-81
2023/06/16 04:47:05;;;;;;;9.00;4.00;;;;;;;;;;107231;1273;22489;-81
2023/06/16 04:49:42;;;;;;;8.10;3.70;;;;;;;;;;106962;1258;24328;-86
2023/06/16 04:52:11;;;;;;;8.90;4.10;;;;;;;;;;106931;1275;22518;-81
2023/06/16 04:54:56;;;;;;;10.70;4.20;;;;;;;;;;106921;1271;22527;-80
2023/06/16 04:57:22;;;;;;;9.40;4.10;;;;;;;;;;106917;1275;24358;-84
2023/06/16 04:59:48;;;;;;;11.00;4.40;;;;;;;;;;107117;1257;22521;-82
2023/06/16 05:02:23;;;;;;;10.00;4.30;;;;;;;;;;107056;1273;22520;-83
2023/06/16 05:04:52;;;;;;;8.90;4.10;;;;;;;;;;107015;1273;22994;-81
2023/06/16 05:07:26;;;;;;;12.30;4.40;;;;;;;;;;107256;1273;24364;-83
2023/06/16 05:10:05;;;;;;;;;;;;;;;;;;;;;
2023/06/16 05:12:40;;;;;;;9.30;4.30;;;;;;;;;;107187;1273;22839;-82
2023/06/16 05:15:07;;;;;;;8.90;4.00;;;;;;;;;;107249;1273;22539;-79
2023/06/16 05:17:36;;;;;;;8.00;4.10;;;;;;;;;;107001;1273;24221;-87
2023/06/16 05:20:06;;;;;;;8.80;4.30;;;;;;;;;;107029;1257;22521;-85
2023/06/16 05:22:33;;;;;;;11.30;4.90;;;;;;;;;;107198;1273;22529;-85
2023/06/16 05:25:02;;;;;;;9.00;4.20;;;;;;;;;;107043;1273;24347;-80
2023/06/16 05:27:28;;;;;;;9.00;4.70;;;;;;;;;;107146;1269;22776;-79
2023/06/16 05:29:55;;;;;;;10.40;4.60;;;;;;;;;;106977;1258;24269;-84
2023/06/16 05:32:31;;;;;;;12.30;5.20;;;;;;;;;;106861;1275;22545;-82
2023/06/16 05:35:05;;;;;;;9.90;4.60;;;;;;;;;;106721;1275;22590;-79
2023/06/16 05:37:33;;;;;;;10.30;5.20;;;;;;;;;;106913;1275;22487;-83
2023/06/16 05:40:04;;;;;;;11.40;4.30;;;;;;;;;;106980;1260;22519;-80
2023/06/16 05:42:38;;;;;;;11.30;4.80;;;;;;;;;;107192;1273;24022;-81
2023/06/16 05:45:14;;;;;;;9.00;4.50;;;;;;;;;;107066;1273;25210;-86
2023/06/16 05:47:40;;;;;;;10.80;4.80;;;;;;;;;;107281;1273;22672;-84
2023/06/16 05:50:07;;;;;;;10.50;4.60;;;;;;;;;;107160;1257;24249;-83
2023/06/16 05:52:44;;;;;;;8.70;5.00;;;;;;;;;;107161;1273;22527;-84
2023/06/16 05:55:11;;;;;;;10.50;4.50;;;;;;;;;;107219;1273;25356;-78
2023/06/16 05:57:46;;;;;;;10.20;4.80;;;;;;;;;;107041;1273;25307;-83
2023/06/16 06:00:15;;;;;;;14.90;5.00;;;;;;;;;;107146;1273;25278;-83
2023/06/16 06:03:03;;;;;;;10.60;5.00;;;;;;;;;;107205;1273;22598;-83
2023/06/16 06:05:34;;;;;;;10.90;4.50;;;;;;;;;;107077;1273;25274;-83
2023/06/16 06:08:16;;;;;;;12.80;5.10;;;;;;;;;;107170;1273;25318;-81
2023/06/16 06:10:42;;;;;;;12.40;4.70;;;;;;;;;;107002;1259;22571;-84
2023/06/16 06:13:12;;;;;;;12.10;5.20;;;;;;;;;;110460;1275;22210;-79
2023/06/16 06:15:41;;;;;;;11.10;5.00;;;;;;;;;;110334;1274;22444;-79
2023/06/16 06:18:10;;;;;;;10.90;4.60;;;;;;;;;;110514;1275;22144;-79
2023/06/16 06:20:57;;;;;;;11.90;5.30;;;;;;;;;;110393;1259;22136;-78
2023/06/16 06:23:23;;;;;;;11.30;4.80;;;;;;;;;;110673;1273;22147;-79
2023/06/16 06:25:52;;;;;;;11.70;5.10;;;;;;;;;;110602;1273;22150;-78
2023/06/16 06:28:24;;;;;;;13.70;4.90;;;;;;;;;;110658;1273;22164;-78
2023/06/16 06:30:52;;;;;;;12.30;5.10;;;;;;;;;;110571;1258;22771;-78
2023/06/16 06:33:27;;;;;;;15.80;5.80;;;;;;;;;;110658;1274;22131;-79
2023/06/16 06:35:54;;;;;;;20.00;5.40;;;;;;;;;;110354;1272;22369;-78
2023/06/16 06:38:21;;;;;;;14.90;5.40;;;;;;;;;;110345;1275;22140;-78
2023/06/16 06:40:47;;;;;;;12.50;5.00;;;;;;;;;;110418;1259;22174;-79
2023/06/16 06:43:13;;;;;;;12.30;5.30;;;;;;;;;;110637;1273;22123;-79
2023/06/16 06:50:20;;;;;;;12.40;5.30;;;;;;;;;;110221;1279;22169;-79
2023/06/16 06:52:57;;;;;;;9.40;5.20;;;;;;;;;;110115;1279;23590;-80
2023/06/16 06:55:23;;;;;;;9.00;5.10;;;;;;;;;;110140;1279;22158;-78
2023/06/16 06:57:53;;;;;;;9.70;4.80;;;;;;;;;;110212;1278;22438;-79
2023/06/16 07:00:22;;;;;;;13.30;5.50;;;;;;;;;;110061;1257;22872;-78
2023/06/16 07:02:50;;;;;;;10.70;4.90;;;;;;;;;;110122;1279;22218;-79
2023/06/16 07:05:17;;;;;;;12.00;5.70;;;;;;;;;;110245;1279;22195;-78
2023/06/16 07:07:43;;;;;;;18.20;5.20;;;;;;;;;;110116;1278;22239;-79
2023/06/16 07:10:10;;;;;;;10.50;5.10;;;;;;;;;;110168;1279;22343;-78
2023/06/16 07:12:36;;;;;;;10.40;5.00;;;;;;;;;;110086;1262;22216;-79
2023/06/16 07:15:03;;;;;;;11.50;4.50;;;;;;;;;;110127;1262;22218;-78
2023/06/16 07:17:31;;;;;;;11.00;4.90;;;;;;;;;;110158;1278;22968;-79
2023/06/16 07:19:57;;;;;;;11.60;4.90;;;;;;;;;;110164;1278;21692;-79
2023/06/16 07:22:23;;;;;;;11.20;4.70;;;;;;;;;;110193;1267;22150;-79
2023/06/16 07:24:49;;;;;;;10.20;4.80;;;;;;;;;;110664;1273;22116;-79
2023/06/16 07:27:15;;;;;;;11.10;4.80;;;;;;;;;;110665;1272;22202;-78
2023/06/16 07:29:42;;;;;;;13.60;5.00;;;;;;;;;;110668;1272;22155;-79
2023/06/16 07:32:08;;;;;;;11.60;4.80;;;;;;;;;;111204;1253;22070;-79
2023/06/16 07:34:34;;;;;;;11.90;4.90;;;;;;;;;;110616;1273;22146;-79
2023/06/16 07:37:00;;;;;;;9.10;4.90;;;;;;;;;;110810;1272;22132;-78
2023/06/16 07:39:34;;;;;;;12.10;4.80;;;;;;;;;;110677;1272;22115;-78
2023/06/16 07:42:00;;;;;;;10.30;4.60;;;;;;;;;;110796;1254;22012;-79
2023/06/16 07:44:26;;;;;;;7.40;4.40;;;;;;;;;;110555;1273;22355;-79
2023/06/16 07:46:52;;;;;;;9.20;4.70;;;;;;;;;;110686;1273;22912;-79
2023/06/16 07:49:18;;;;;;;10.60;4.70;;;;;;;;;;110671;1273;22112;-78
2023/06/16 07:51:45;;;;;;;9.20;4.20;;;;;;;;;;110754;1256;22757;-78
2023/06/16 07:54:11;;;;;;;11.00;4.80;;;;;;;;;;110627;1273;22094;-78
2023/06/16 07:56:38;;;;;;;12.30;4.40;;;;;;;;;;110641;1273;22119;-78
2023/06/16 07:59:04;;;;;;;10.60;4.10;;;;;;;;;;110650;1273;22333;-78
2023/06/16 08:01:31;;;;;;;9.50;4.00;;;;;;;;;;110582;1251;22174;-79
2023/06/16 08:03:57;;;;;;;10.80;4.50;;;;;;;;;;110424;1274;22936;-78
2023/06/16 08:06:27;;;;;;;8.70;4.30;;;;;;;;;;110557;1273;22416;-79
2023/06/16 08:08:53;;;;;;;8.80;4.30;;;;;;;;;;110651;1273;22120;-78
2023/06/16 08:11:19;;;;;;;8.60;4.10;;;;;;;;;;110669;1273;22330;-78
2023/06/16 08:13:45;;;;;;;8.70;3.80;;;;;;;;;;110647;1256;22398;-78
2023/06/16 08:16:12;;;;;;;9.30;4.10;;;;;;;;;;110775;1273;22181;-78
2023/06/16 08:18:38;;;;;;;9.10;3.90;;;;;;;;;;110658;1273;22249;-79
2023/06/16 08:21:06;;;;;;;11.90;4.10;;;;;;;;;;110722;1273;22104;-79
2023/06/16 08:23:32;;;;;;;8.50;4.00;;;;;;;;;;110894;1253;22099;-78
2023/06/16 08:25:59;;;;;;;7.80;3.70;;;;;;;;;;110745;1273;22345;-78
2023/06/16 08:28:26;;;;;;;9.00;4.20;;;;;;;;;;110650;1273;22373;-78
2023/06/16 08:30:52;;;;;;;8.30;3.90;;;;;;;;;;110621;1272;22123;-79
2023/06/16 08:33:19;;;;;;;7.20;3.80;;;;;;;;;;110658;1256;22126;-78
2023/06/16 08:35:45;;;;;;;13.30;4.20;;;;;;;;;;110652;1273;23014;-79
2023/06/16 08:38:11;;;;;;;8.60;4.10;;;;;;;;;;110622;1274;22572;-78
2023/06/16 08:40:37;;;;;;;11.50;5.50;;;;;;;;;;110437;1273;22172;-79
2023/06/16 08:43:05;;;;;;;10.40;5.30;;;;;;;;;;110375;1259;22152;-79
2023/06/16 08:45:33;;;;;;;9.40;4.50;;;;;;;;;;110685;1273;22122;-79
2023/06/16 08:48:02;;;;;;;11.80;4.60;;;;;;;;;;110667;1274;22127;-79
2023/06/16 08:50:29;;;;;;;9.30;5.00;;;;;;;;;;110497;1273;23199;-79
2023/06/16 08:52:57;;;;;;;10.60;4.70;;;;;;;;;;110551;1259;22126;-78
2023/06/16 08:55:29;;;;;;;10.20;4.20;;;;;;;;;;110529;1273;22841;-79
2023/06/16 08:57:56;;;;;;;7.40;3.90;;;;;;;;;;110537;1274;22104;-78
2023/06/16 09:00:23;;;;;;;9.40;4.10;;;;;;;;;;110675;1273;22378;-79
2023/06/16 09:02:49;;;;;;;10.00;4.40;;;;;;;;;;110573;1251;22178;-78
2023/06/16 09:05:17;;;;;;;8.50;4.00;;;;;;;;;;110706;1274;22150;-80
2023/06/16 09:07:44;;;;;;;10.50;3.90;;;;;;;;;;110513;1274;22112;-80
2023/06/16 09:10:10;;;;;;;8.60;4.00;;;;;;;;;;110501;1274;22123;-81
2023/06/16 09:12:36;;;;;;;7.70;3.70;;;;;;;;;;110505;1274;22473;-82
2023/06/16 09:15:10;;;;;;;7.30;3.90;;;;;;;;;;110739;1259;22173;-80
2023/06/16 09:17:37;;;;;;;9.90;4.00;;;;;;;;;;110556;1274;22729;-80
2023/06/16 09:20:06;;;;;;;9.90;4.20;;;;;;;;;;110372;1274;22512;-80
2023/06/16 09:22:36;;;;;;;8.10;3.80;;;;;;;;;;110696;1274;23157;-80
2023/06/16 09:25:07;;;;;;;7.70;3.30;;;;;;;;;;110838;1257;22154;-81
2023/06/16 09:27:45;;;;;;;7.40;3.70;;;;;;;;;;110638;1274;22181;-81
2023/06/16 09:30:13;;;;;;;8.70;3.90;;;;;;;;;;110400;1271;22114;-79
2023/06/16 09:32:40;;;;;;;7.80;3.80;;;;;;;;;;110340;1274;22334;-79
2023/06/16 09:35:20;;;;;;;7.60;3.80;;;;;;;;;;110869;1256;22414;-79
2023/06/16 09:37:47;;;;;;;10.90;4.00;;;;;;;;;;110671;1274;22723;-79
2023/06/16 09:40:14;;;;;;;8.80;4.20;;;;;;;;;;110664;1274;22039;-80
2023/06/16 09:42:40;;;;;;;10.70;6.10;;;;;;;;;;110530;1275;22127;-80
2023/06/16 09:45:11;;;;;;;14.90;6.30;;;;;;;;;;110831;1257;22407;-80
2023/06/16 09:47:38;;;;;;;9.70;4.40;;;;;;;;;;110526;1275;22122;-79
2023/06/16 09:50:05;;;;;;;8.30;3.90;;;;;;;;;;110445;1275;22129;-80
2023/06/16 09:52:32;;;;;;;8.10;3.80;;;;;;;;;;110464;1274;22354;-79
2023/06/16 09:54:59;;;;;;;8.40;3.60;;;;;;;;;;110627;1259;22995;-80
2023/06/16 09:57:28;;;;;;;9.90;4.10;;;;;;;;;;110440;1275;22128;-79
2023/06/16 09:59:57;;;;;;;7.90;3.70;;;;;;;;;;110513;1274;22528;-79
2023/06/16 10:02:27;;;;;;;10.00;4.00;;;;;;;;;;110645;1275;22057;-79
2023/06/16 10:04:55;;;;;;;8.20;3.70;;;;;;;;;;110389;1260;22443;-79
2023/06/16 10:07:21;;;;;;;7.40;3.70;;;;;;;;;;110358;1275;22138;-79
2023/06/16 10:09:49;;;;;;;8.70;4.10;;;;;;;;;;110484;1275;23045;-80
2023/06/16 10:12:22;;;;;;;9.10;3.60;;;;;;;;;;110409;1275;22104;-80
2023/06/16 10:14:55;;;;;;;8.00;3.90;;;;;;;;;;110534;1259;22117;-79
2023/06/16 10:17:21;;;;;;;8.70;4.10;;;;;;;;;;110453;1274;23239;-80
2023/06/16 10:19:50;;;;;;;10.10;4.10;;;;;;;;;;110688;1275;22370;-80
2023/06/16 10:22:17;;;;;;;7.50;4.10;;;;;;;;;;110482;1275;22730;-79
2023/06/16 10:24:43;;;;;;;9.90;3.70;;;;;;;;;;110547;1258;22115;-79
2023/06/16 10:27:12;;;;;;;15.50;3.90;;;;;;;;;;110456;1274;22131;-80
2023/06/16 10:29:41;;;;;;;6.90;3.20;;;;;;;;;;110684;1275;22129;-81
2023/06/16 10:32:10;;;;;;;10.50;3.70;;;;;;;;;;110502;1275;22360;-80
2023/06/16 10:35:18;;;;;;;10.90;3.50;;;;;;;;;;110603;1251;22129;-78
2023/06/16 10:37:37;;;;;;;12.50;3.10;;;;;;;;;;110604;1274;22352;-79
2023/06/16 10:40:04;;;;;;;7.20;2.70;;;;;;;;;;110684;1272;22926;-80
2023/06/16 10:42:41;;;;;;;8.50;3.10;;;;;;;;;;110554;1275;22105;-79
2023/06/16 10:45:26;;;;;;;13.10;3.10;;;;;;;;;;110570;1256;22115;-79
2023/06/16 10:48:04;;;;;;;9.30;3.60;;;;;;;;;;110608;1275;22131;-79
2023/06/16 10:50:42;;;;;;;13.60;4.10;;;;;;;;;;110409;1275;22117;-79
2023/06/16 10:53:12;;;;;;;11.30;4.30;;;;;;;;;;106549;1275;5079237;-79
2023/06/16 10:55:45;;;;;;;13.30;3.70;;;;;;;;;;110518;1260;22968;-79
2023/06/16 10:58:15;;;;;;;10.60;4.40;;;;;;;;;;110357;1275;23240;-80
2023/06/16 11:01:24;;;;;;;13.00;4.20;;;;;;;;;;110606;1275;22318;-79
2023/06/16 11:03:57;;;;;;;12.60;4.10;;;;;;;;;;110620;1275;22107;-79
2023/06/16 11:07:11;;;;;;;8.70;3.50;;;;;;;;;;110587;1260;22126;-79
2023/06/16 11:09:56;;;;;;;9.50;3.80;;;;;;;;;;110465;1275;22112;-79
2023/06/16 11:12:26;;;;;;;10.10;3.60;;;;;;;;;;110480;1275;22149;-79
2023/06/16 11:14:55;;;;;;;10.60;4.20;;;;;;;;;;110350;1275;22134;-79
2023/06/16 11:17:29;;;;;;;8.20;3.80;;;;;;;;;;110627;1260;22375;-81
2023/06/16 11:20:26;;;;;;;9.30;4.20;;;;;;;;;;110597;1275;22115;-80
2023/06/16 11:22:52;;;;;;;8.40;3.60;;;;;;;;;;110424;1275;22152;-79
2023/06/16 11:25:19;;;;;;;7.80;3.40;;;;;;;;;;110616;1275;22346;-80
2023/06/16 11:27:46;;;;;;;8.90;3.70;;;;;;;;;;110431;1257;22005;-80
2023/06/16 11:30:13;;;;;;;8.20;3.80;;;;;;;;;;110604;1275;23201;-80
2023/06/16 11:32:40;;;;;;;7.80;3.30;;;;;;;;;;110477;1275;22126;-80
2023/06/16 11:35:06;;;;;;;8.10;3.50;;;;;;;;;;110643;1275;22107;-80
2023/06/16 11:37:54;;;;;;;7.20;3.00;;;;;;;;;;110570;1260;22906;-80
2023/06/16 11:40:26;;;;;;;8.60;3.30;;;;;;;;;;110353;1275;22765;-81
2023/06/16 11:42:54;;;;;;;7.20;3.00;;;;;;;;;;110246;1276;22134;-80
2023/06/16 11:45:22;;;;;;;7.90;3.00;;;;;;;;;;110493;1275;22008;-80
2023/06/16 11:47:49;;;;;;;6.80;2.70;;;;;;;;;;110574;1255;22797;-80
2023/06/16 11:50:19;;;;;;;7.30;2.90;;;;;;;;;;110340;1275;23329;-80
2023/06/16 11:52:46;;;;;;;6.90;3.00;;;;;;;;;;110473;1275;22137;-80
2023/06/16 11:55:13;;;;;;;6.00;2.80;;;;;;;;;;110322;1275;22807;-80
2023/06/16 11:57:40;;;;;;;6.20;2.70;;;;;;;;;;110452;1259;22130;-80
2023/06/16 12:00:09;;;;;;;6.50;2.80;;;;;;;;;;110369;1275;22123;-79
2023/06/16 12:02:40;;;;;;;6.80;3.00;;;;;;;;;;110339;1276;23009;-80
2023/06/16 12:05:16;;;;;;;8.40;3.30;;;;;;;;;;110349;1276;22907;-80
2023/06/16 12:07:43;;;;;;;6.40;3.30;;;;;;;;;;110710;1259;22135;-80
2023/06/16 12:10:11;;;;;;;6.60;3.20;;;;;;;;;;110352;1275;22382;-80
2023/06/16 12:12:39;;;;;;;7.50;3.10;;;;;;;;;;110361;1275;22110;-79
2023/06/16 12:15:07;;;;;;;6.60;3.20;;;;;;;;;;110455;1275;22144;-79
2023/06/16 12:17:34;;;;;;;10.30;3.40;;;;;;;;;;110618;1254;22933;-79
2023/06/16 12:20:05;;;;;;;7.00;3.20;;;;;;;;;;110352;1275;22110;-80
2023/06/16 12:22:38;;;;;;;7.00;2.90;;;;;;;;;;110424;1276;22128;-79
2023/06/16 12:25:13;;;;;;;7.10;3.50;;;;;;;;;;110483;1275;22517;-79
2023/06/16 12:27:49;;;;;;;8.30;4.00;;;;;;;;;;110370;1260;22195;-78
2023/06/16 12:30:31;;;;;;;8.00;4.00;;;;;;;;;;110292;1278;22992;-80
2023/06/16 12:33:06;;;;;;;7.20;3.60;;;;;;;;;;110127;1278;22747;-80
2023/06/16 12:35:33;;;;;;;7.30;3.70;;;;;;;;;;110322;1278;22132;-80
2023/06/16 12:38:00;;;;;;;8.00;3.70;;;;;;;;;;110566;1260;22731;-81
2023/06/16 12:40:33;;;;;;;7.20;3.90;;;;;;;;;;110531;1276;22474;-79
2023/06/16 12:43:19;;;;;;;8.90;3.90;;;;;;;;;;110276;1277;22157;-80
2023/06/16 12:45:48;;;;;;;7.60;3.70;;;;;;;;;;110555;1277;22097;-79
2023/06/16 12:48:17;;;;;;;7.30;3.40;;;;;;;;;;110315;1262;22416;-80
2023/06/16 12:50:46;;;;;;;7.20;3.70;;;;;;;;;;110157;1277;22944;-79
2023/06/16 12:53:15;;;;;;;8.10;4.00;;;;;;;;;;110182;1278;22136;-80
2023/06/16 12:55:43;;;;;;;9.00;4.10;;;;;;;;;;110534;1278;22085;-79
2023/06/16 12:58:12;;;;;;;8.50;3.70;;;;;;;;;;110392;1259;22876;-79
2023/06/16 13:00:43;;;;;;;7.60;3.90;;;;;;;;;;110151;1278;22609;-79
2023/06/16 13:03:11;;;;;;;7.90;3.90;;;;;;;;;;110219;1277;22193;-79
2023/06/16 13:05:40;;;;;;;9.00;4.00;;;;;;;;;;110218;1277;22757;-79
2023/06/16 13:08:10;;;;;;;8.50;3.80;;;;;;;;;;110188;1258;22325;-79
2023/06/16 13:10:38;;;;;;;7.50;4.00;;;;;;;;;;110080;1279;22203;-79
2023/06/16 13:13:08;;;;;;;7.30;3.90;;;;;;;;;;110126;1279;22126;-80
2023/06/16 13:15:36;;;;;;;5.80;3.20;;;;;;;;;;110120;1279;22845;-78
2023/06/16 13:18:05;;;;;;;6.50;3.40;;;;;;;;;;110181;1254;22214;-79
2023/06/16 13:20:34;;;;;;;7.90;3.50;;;;;;;;;;110128;1277;22976;-80
2023/06/16 13:23:04;;;;;;;8.90;3.80;;;;;;;;;;110164;1277;22997;-80
2023/06/16 13:25:34;;;;;;;7.70;3.40;;;;;;;;;;110183;1277;22148;-79
2023/06/16 13:28:06;;;;;;;8.80;3.70;;;;;;;;;;110321;1253;22009;-80
2023/06/16 13:30:36;;;;;;;6.90;3.90;;;;;;;;;;110186;1277;22293;-79
2023/06/16 13:33:04;;;;;;;7.70;4.00;;;;;;;;;;110303;1277;22125;-80
2023/06/16 13:35:32;;;;;;;7.90;3.70;;;;;;;;;;110167;1278;22820;-79
2023/06/16 13:38:02;;;;;;;7.40;4.00;;;;;;;;;;110169;1276;22378;-80
2023/06/16 13:40:30;;;;;;;6.40;3.40;;;;;;;;;;110208;1263;23062;-79
2023/06/16 13:50:06;;;;;;;8.20;3.70;;;;;;;;;;103935;1292;545779;-83
2023/06/16 13:52:33;;;;;;;8.80;4.10;;;;;;;;;;106430;1283;24350;-79
2023/06/16 13:54:59;;;;;;;8.00;3.80;;;;;;;;;;106453;1283;24256;-79
2023/06/16 13:57:26;;;;;;;16.80;4.60;;;;;;;;;;106133;1282;24199;-83
2023/06/16 13:59:53;;;;;;;9.30;3.70;;;;;;;;;;106131;1266;22539;-81
2023/06/16 14:02:20;;;;;;;11.20;3.20;;;;;;;;;;106361;1287;22647;-80
2023/06/16 14:04:46;;;;;;;6.50;3.10;;;;;;;;;;104094;1284;3180323;-85
2023/06/16 14:07:15;;;;;;;7.90;3.40;;;;;;;;;;106391;1284;24266;-83
2023/06/16 14:09:42;;;;;;;7.90;3.70;;;;;;;;;;106387;1266;23292;-83
2023/06/16 14:12:09;;;;;;;7.60;4.10;;;;;;;;;;106426;1284;22527;-78
2023/06/16 14:14:36;;;;;;;13.20;3.80;;;;;;;;;;106475;1263;25422;-78
2023/06/16 14:17:03;;;;;;;8.10;4.00;;;;;;;;;;106383;1284;24371;-82
2023/06/16 14:19:30;;;;;;;9.20;3.70;;;;;;;;;;106484;1263;22613;-81
2023/06/16 14:21:57;;;;;;;9.50;4.30;;;;;;;;;;106795;1278;22517;-86
2023/06/16 14:24:23;;;;;;;8.50;4.00;;;;;;;;;;106894;1278;22516;-83
2023/06/16 14:26:50;;;;;;;7.70;3.90;;;;;;;;;;106906;1278;24971;-78
2023/06/16 14:29:17;;;;;;;9.30;4.30;;;;;;;;;;106845;1278;24198;-77
2023/06/16 14:31:44;;;;;;;8.20;4.30;;;;;;;;;;106853;1278;22792;-83
2023/06/16 14:34:11;;;;;;;7.70;3.70;;;;;;;;;;106899;1278;24293;-80
2023/06/16 14:36:37;;;;;;;9.40;3.90;;;;;;;;;;106845;1278;22530;-82
2023/06/16 14:39:04;;;;;;;7.60;3.60;;;;;;;;;;106864;1278;22570;-81
2023/06/16 14:41:36;;;;;;;8.70;4.30;;;;;;;;;;106866;1259;24353;-81
2023/06/16 14:44:03;;;;;;;10.00;4.00;;;;;;;;;;106853;1278;22609;-81
2023/06/16 14:46:30;;;;;;;9.30;3.80;;;;;;;;;;106854;1278;22986;-83
2023/06/16 14:48:57;;;;;;;11.00;3.90;;;;;;;;;;106908;1278;22535;-81
2023/06/16 14:51:24;;;;;;;9.20;3.60;;;;;;;;;;106966;1259;22539;-83
2023/06/16 14:53:51;;;;;;;8.80;3.40;;;;;;;;;;106716;1277;24218;-80
2023/06/16 14:56:17;;;;;;;8.10;3.80;;;;;;;;;;106836;1277;22534;-79
2023/06/16 14:58:44;;;;;;;8.30;3.20;;;;;;;;;;106917;1278;26474;-79
2023/06/16 15:01:11;;;;;;;8.90;3.70;;;;;;;;;;106943;1260;22533;-81
2023/06/16 15:03:43;;;;;;;8.60;4.00;;;;;;;;;;106882;1278;24193;-80
2023/06/16 15:06:13;;;;;;;7.50;3.40;;;;;;;;;;106905;1269;24222;-82